createdAt,value
2017-10-05T00:01:22.635Z,98.30
2017-10-05T00:03:50.046Z,98.30
2017-10-05T00:06:17.466Z,98.50
2017-10-05T00:08:44.898Z,98.60
2017-10-05T00:11:12.295Z,98.80
2017-10-05T00:13:39.715Z,98.80
2017-10-05T00:16:07.891Z,98.90
2017-10-05T00:18:37.031Z,99.00
2017-10-05T00:21:04.446Z,99.00
2017-10-05T00:23:32.620Z,99.00
2017-10-05T00:26:00.808Z,99.00
2017-10-05T00:28:28.218Z,98.90
2017-10-05T00:30:55.652Z,99.00
2017-10-05T00:33:23.058Z,99.00
2017-10-05T00:35:50.475Z,99.00
2017-10-05T00:38:17.899Z,99.10
2017-10-05T00:40:45.323Z,99.10
2017-10-05T00:43:13.503Z,99.00
2017-10-05T00:45:41.737Z,99.10
2017-10-05T00:48:09.183Z,99.10
2017-10-05T00:50:37.737Z,99.10
2017-10-05T00:53:05.152Z,99.10
2017-10-05T00:55:32.590Z,99.10
2017-10-05T00:58:00.037Z,99.10
2017-10-05T01:00:27.456Z,99.10
2017-10-05T01:02:55.639Z,99.30
2017-10-05T01:05:23.071Z,99.30
2017-10-05T01:07:51.242Z,99.30
2017-10-05T01:10:19.431Z,99.50
2017-10-05T01:12:46.852Z,99.30
2017-10-05T01:15:14.282Z,99.40
2017-10-05T01:17:41.727Z,99.50
2017-10-05T01:20:09.148Z,99.40
2017-10-05T01:22:37.498Z,99.40
2017-10-05T01:25:04.930Z,99.40
2017-10-05T01:27:32.347Z,99.40
2017-10-05T01:29:59.773Z,99.40
2017-10-05T01:32:27.185Z,99.40
2017-10-05T01:34:54.605Z,99.40
2017-10-05T01:37:22.792Z,99.40
2017-10-05T01:39:50.214Z,99.40
2017-10-05T01:42:17.642Z,99.90
2017-10-05T01:44:45.054Z,99.70
2017-10-05T01:47:12.487Z,99.80
2017-10-05T01:49:40.672Z,99.90
2017-10-05T01:52:08.867Z,99.90
2017-10-05T01:54:36.271Z,99.90
2017-10-05T01:57:03.702Z,99.90
2017-10-05T01:59:31.108Z,99.90
2017-10-05T02:01:59.310Z,99.90
2017-10-05T02:04:26.980Z,99.90
2017-10-05T02:06:54.429Z,99.90
2017-10-05T02:09:21.854Z,99.90
2017-10-05T02:11:50.047Z,99.90
2017-10-05T02:14:17.478Z,99.90
2017-10-05T02:16:45.679Z,99.90
2017-10-05T02:19:13.094Z,99.90
2017-10-05T02:21:40.510Z,99.90
2017-10-05T02:24:08.877Z,99.90
2017-10-05T02:26:36.287Z,99.90
2017-10-05T02:29:03.714Z,99.90
2017-10-05T02:31:31.137Z,99.90
2017-10-05T02:33:58.556Z,99.90
2017-10-05T02:36:25.971Z,99.90
2017-10-05T02:38:53.396Z,99.90
2017-10-05T02:41:20.827Z,99.90
2017-10-05T02:43:48.243Z,99.90
2017-10-05T02:46:15.662Z,99.90
2017-10-05T02:48:44.079Z,99.90
2017-10-05T02:51:11.511Z,99.90
2017-10-05T02:53:40.211Z,99.90
2017-10-05T02:56:09.294Z,99.90
2017-10-05T02:58:36.719Z,99.90
2017-10-05T03:01:04.127Z,99.90
2017-10-05T03:03:31.554Z,99.90
2017-10-05T03:05:58.973Z,99.90
2017-10-05T03:08:27.167Z,99.90
2017-10-05T03:10:55.355Z,99.90
2017-10-05T03:13:22.795Z,99.90
2017-10-05T03:15:50.983Z,99.90
2017-10-05T03:18:18.405Z,99.90
2017-10-05T03:20:47.325Z,99.90
2017-10-05T03:23:14.752Z,99.90
2017-10-05T03:25:42.159Z,99.90
2017-10-05T03:28:10.814Z,99.90
2017-10-05T03:30:39.913Z,99.90
2017-10-05T03:33:08.091Z,99.90
2017-10-05T03:35:35.506Z,99.90
2017-10-05T03:38:02.932Z,99.90
2017-10-05T03:40:30.338Z,99.90
2017-10-05T03:42:57.775Z,99.90
2017-10-05T03:45:26.036Z,99.90
2017-10-05T03:47:53.455Z,99.90
2017-10-05T03:50:20.867Z,99.90
2017-10-05T03:52:48.304Z,99.90
2017-10-05T03:55:16.125Z,99.90
2017-10-05T03:57:43.544Z,99.90
2017-10-05T04:00:10.956Z,99.90
2017-10-05T04:02:38.375Z,99.90
2017-10-05T04:05:06.551Z,99.90
2017-10-05T04:07:34.727Z,99.90
2017-10-05T04:10:02.915Z,99.90
2017-10-05T04:12:30.322Z,99.90
2017-10-05T04:14:57.730Z,99.90
2017-10-05T04:17:25.148Z,99.90
2017-10-05T04:19:52.562Z,99.90
2017-10-05T04:22:19.974Z,99.90
2017-10-05T04:24:48.150Z,99.90
2017-10-05T04:27:16.331Z,99.90
2017-10-05T04:29:44.508Z,99.90
2017-10-05T04:32:12.694Z,99.90
2017-10-05T04:34:40.119Z,99.90
2017-10-05T04:37:08.319Z,99.90
2017-10-05T04:39:36.487Z,99.90
2017-10-05T04:42:03.907Z,99.90
2017-10-05T04:44:31.344Z,99.90
2017-10-05T04:46:58.751Z,99.90
2017-10-05T04:49:26.927Z,99.90
2017-10-05T04:51:55.100Z,99.90
2017-10-05T04:54:22.519Z,99.90
2017-10-05T04:56:49.932Z,99.90
2017-10-05T04:59:17.345Z,99.90
2017-10-05T05:01:45.530Z,99.90
2017-10-05T05:04:13.712Z,99.90
2017-10-05T05:06:41.615Z,99.90
2017-10-05T05:09:09.042Z,99.90
2017-10-05T05:11:37.216Z,99.90
2017-10-05T05:14:04.637Z,99.90
2017-10-05T05:16:32.818Z,99.90
2017-10-05T05:19:01.739Z,99.90
2017-10-05T05:21:29.161Z,99.90
2017-10-05T05:23:56.696Z,99.90
2017-10-05T05:26:24.107Z,99.90
2017-10-05T05:28:51.515Z,99.90
2017-10-05T05:31:18.935Z,99.90
2017-10-05T05:33:46.396Z,99.90
2017-10-05T05:36:13.802Z,99.90
2017-10-05T05:38:42.823Z,99.90
2017-10-05T05:41:10.317Z,99.90
2017-10-05T05:43:37.738Z,99.90
2017-10-05T05:46:05.157Z,99.90
2017-10-05T05:48:32.573Z,99.90
2017-10-05T05:50:59.984Z,99.90
2017-10-05T05:53:28.155Z,99.90
2017-10-05T05:55:56.335Z,99.90
2017-10-05T05:58:24.520Z,99.90
2017-10-05T06:00:52.709Z,99.90
2017-10-05T06:03:20.126Z,99.90
2017-10-05T06:05:47.542Z,99.90
2017-10-05T06:08:14.955Z,99.90
2017-10-05T06:10:42.454Z,99.90
2017-10-05T06:13:09.880Z,99.90
2017-10-05T06:15:37.288Z,99.90
2017-10-05T06:18:04.699Z,99.90
2017-10-05T06:20:32.119Z,99.90
2017-10-05T06:22:59.527Z,99.90
2017-10-05T06:25:26.946Z,99.90
2017-10-05T06:27:55.119Z,99.90
2017-10-05T06:30:23.319Z,99.90
2017-10-05T06:32:50.736Z,99.90
2017-10-05T06:35:18.151Z,99.90
2017-10-05T06:37:45.561Z,99.90
2017-10-05T06:40:13.749Z,99.90
2017-10-05T06:42:41.170Z,99.90
2017-10-05T06:45:08.604Z,99.90
2017-10-05T06:47:36.010Z,99.90
2017-10-05T06:50:04.232Z,99.90
2017-10-05T06:52:31.648Z,99.90
2017-10-05T06:54:59.476Z,99.90
2017-10-05T06:57:26.894Z,99.90
2017-10-05T06:59:54.339Z,99.90
2017-10-05T07:02:21.755Z,99.90
2017-10-05T07:04:49.959Z,99.90
2017-10-05T07:07:17.386Z,99.90
2017-10-05T07:09:45.591Z,99.90
2017-10-05T07:12:14.376Z,99.90
2017-10-05T07:14:43.451Z,99.90
2017-10-05T07:17:11.638Z,99.90
2017-10-05T07:19:39.056Z,99.90
2017-10-05T07:22:06.475Z,99.90
2017-10-05T07:24:33.890Z,99.90
2017-10-05T07:27:02.075Z,99.90
2017-10-05T07:29:30.266Z,99.90
2017-10-05T07:31:57.689Z,99.90
2017-10-05T07:34:25.871Z,99.90
2017-10-05T07:36:54.075Z,99.90
2017-10-05T07:39:21.479Z,99.90
2017-10-05T07:41:48.896Z,99.90
2017-10-05T07:44:16.315Z,99.90
2017-10-05T07:46:43.722Z,99.90
2017-10-05T07:49:11.140Z,99.90
2017-10-05T07:51:38.557Z,99.90
2017-10-05T07:54:05.971Z,99.90
2017-10-05T07:56:33.386Z,99.90
2017-10-05T07:59:01.578Z,99.90
2017-10-05T08:01:28.998Z,99.90
2017-10-05T08:03:56.411Z,99.90
2017-10-05T08:06:23.834Z,99.90
2017-10-05T08:08:52.010Z,99.90
2017-10-05T08:11:19.437Z,99.90
2017-10-05T08:13:46.848Z,99.90
2017-10-05T08:16:14.270Z,99.90
2017-10-05T08:18:42.538Z,99.90
2017-10-05T08:21:10.728Z,99.90
2017-10-05T08:23:38.136Z,99.90
2017-10-05T08:26:05.572Z,99.90
2017-10-05T08:28:32.987Z,99.90
2017-10-05T08:31:01.252Z,99.90
2017-10-05T08:33:28.660Z,99.90
2017-10-05T08:35:56.063Z,99.90
2017-10-05T08:38:24.238Z,99.90
2017-10-05T08:40:52.419Z,99.90
2017-10-05T08:43:20.602Z,99.90
2017-10-05T08:45:48.016Z,99.90
2017-10-05T08:48:15.446Z,99.90
2017-10-05T08:50:42.850Z,99.90
2017-10-05T08:53:10.262Z,99.90
2017-10-05T08:55:37.695Z,99.90
2017-10-05T08:58:05.126Z,99.90
2017-10-05T09:00:33.294Z,99.90
2017-10-05T09:03:01.480Z,99.90
2017-10-05T09:05:29.654Z,99.90
2017-10-05T09:07:57.843Z,99.90
2017-10-05T09:10:25.950Z,99.90
2017-10-05T09:12:53.383Z,99.90
2017-10-05T09:15:20.803Z,99.90
2017-10-05T09:17:48.239Z,99.90
2017-10-05T09:20:15.669Z,99.90
2017-10-05T09:22:43.075Z,99.90
2017-10-05T09:25:11.322Z,99.90
2017-10-05T09:27:38.735Z,99.90
2017-10-05T09:30:06.143Z,99.90
2017-10-05T09:32:33.575Z,99.90
2017-10-05T09:35:00.988Z,99.90
2017-10-05T09:37:28.392Z,99.90
2017-10-05T09:39:55.923Z,99.90
2017-10-05T09:42:23.321Z,99.90
2017-10-05T09:44:50.718Z,99.90
2017-10-05T09:47:18.143Z,99.90
2017-10-05T09:49:46.538Z,99.90
2017-10-05T09:52:15.632Z,99.90
2017-10-05T09:54:43.817Z,99.90
2017-10-05T09:57:11.237Z,99.90
2017-10-05T09:59:38.643Z,99.90
2017-10-05T10:02:06.075Z,99.90
2017-10-05T10:04:34.251Z,99.90
2017-10-05T10:07:01.757Z,99.90
2017-10-05T10:09:29.169Z,99.90
2017-10-05T10:11:56.582Z,99.90
2017-10-05T10:14:24.802Z,99.90
2017-10-05T10:16:52.219Z,99.90
2017-10-05T10:19:19.627Z,99.90
2017-10-05T10:21:47.051Z,99.90
2017-10-05T10:24:16.725Z,99.90
2017-10-05T10:26:44.134Z,99.90
2017-10-05T10:29:11.560Z,99.90
2017-10-05T10:31:38.962Z,99.90
2017-10-05T10:34:06.384Z,99.90
2017-10-05T10:36:34.560Z,99.90
2017-10-05T10:39:02.763Z,99.90
2017-10-05T10:41:30.179Z,99.90
2017-10-05T10:43:57.578Z,99.90
2017-10-05T10:46:25.003Z,99.90
2017-10-05T10:48:53.171Z,99.90
2017-10-05T10:51:21.362Z,99.90
2017-10-05T10:53:48.774Z,99.90
2017-10-05T10:56:17.014Z,99.90
2017-10-05T10:58:44.423Z,99.90
2017-10-05T11:01:12.623Z,99.70
2017-10-05T11:03:40.042Z,99.60
2017-10-05T11:06:07.443Z,98.50
2017-10-05T11:08:34.876Z,98.50
2017-10-05T11:11:02.284Z,98.30
2017-10-05T11:13:29.718Z,98.40
2017-10-05T11:15:57.163Z,98.40
2017-10-05T11:18:24.595Z,97.60
2017-10-05T11:20:52.779Z,96.20
2017-10-05T11:23:20.191Z,96.20
2017-10-05T11:25:47.598Z,95.70
2017-10-05T11:28:15.010Z,95.70
2017-10-05T11:30:44.579Z,96.20
2017-10-05T11:33:12.039Z,96.20
2017-10-05T11:35:39.471Z,96.70
2017-10-05T11:38:06.875Z,98.20
2017-10-05T11:40:34.299Z,99.00
2017-10-05T11:43:01.711Z,99.10
2017-10-05T11:45:29.118Z,98.30
2017-10-05T11:47:56.538Z,97.00
2017-10-05T11:50:24.734Z,93.30
2017-10-05T11:52:52.201Z,93.30
2017-10-05T11:55:19.604Z,91.90
2017-10-05T11:57:48.624Z,92.70
2017-10-05T12:00:16.799Z,92.70
2017-10-05T12:02:44.279Z,92.70
2017-10-05T12:05:11.684Z,93.60
2017-10-05T12:07:39.087Z,93.90
2017-10-05T12:10:06.515Z,94.10
2017-10-05T12:12:34.703Z,93.70
2017-10-05T12:15:02.188Z,93.70
2017-10-05T12:17:29.607Z,93.70
2017-10-05T12:19:57.781Z,92.50
2017-10-05T12:22:25.963Z,91.40
2017-10-05T12:24:54.133Z,90.60
2017-10-05T12:27:21.541Z,90.60
2017-10-05T12:29:48.946Z,90.20
2017-10-05T12:32:16.376Z,90.10
2017-10-05T12:34:44.596Z,90.60
2017-10-05T12:37:12.011Z,90.50
2017-10-05T12:39:40.200Z,90.60
2017-10-05T12:42:07.633Z,90.60
2017-10-05T12:44:35.035Z,91.60
2017-10-05T12:47:02.443Z,91.90
2017-10-05T12:49:29.861Z,91.60
2017-10-05T12:51:57.263Z,91.40
2017-10-05T12:54:25.460Z,89.60
2017-10-05T12:56:53.629Z,89.60
2017-10-05T12:59:21.315Z,89.70
2017-10-05T13:01:49.856Z,90.70
2017-10-05T13:04:18.026Z,90.50
2017-10-05T13:06:46.202Z,90.30
2017-10-05T13:09:14.392Z,89.50
2017-10-05T13:11:41.802Z,89.40
2017-10-05T13:14:09.238Z,86.80
2017-10-05T13:16:36.695Z,84.50
2017-10-05T13:19:04.139Z,82.90
2017-10-05T13:21:31.582Z,82.50
2017-10-05T13:23:59.771Z,83.50
2017-10-05T13:26:27.227Z,83.50
2017-10-05T13:28:54.860Z,84.80
2017-10-05T13:31:22.271Z,87.00
2017-10-05T13:33:49.696Z,88.30
2017-10-05T13:36:17.161Z,89.50
2017-10-05T13:38:44.537Z,90.10
2017-10-05T13:41:11.952Z,90.30
2017-10-05T13:43:39.366Z,90.50
2017-10-05T13:46:06.811Z,92.30
2017-10-05T13:48:34.221Z,93.20
2017-10-05T13:51:01.656Z,93.80
2017-10-05T13:53:29.863Z,95.40
2017-10-05T13:55:57.311Z,95.40
2017-10-05T13:58:24.720Z,96.00
2017-10-05T14:00:52.635Z,96.70
2017-10-05T14:03:21.204Z,97.60
2017-10-05T14:05:48.606Z,97.40
2017-10-05T14:08:16.018Z,97.60
2017-10-05T14:10:43.472Z,98.00
2017-10-05T14:13:10.887Z,98.60
2017-10-05T14:15:38.311Z,98.70
2017-10-05T14:18:05.766Z,97.40
2017-10-05T14:20:33.212Z,94.10
2017-10-05T14:23:00.682Z,90.50
2017-10-05T14:25:28.091Z,82.20
2017-10-05T14:27:56.304Z,69.70
2017-10-05T14:30:23.717Z,69.70
2017-10-05T14:32:51.930Z,78.00
2017-10-05T14:35:19.351Z,77.20
2017-10-05T14:37:47.552Z,74.80
2017-10-05T14:40:15.711Z,71.90
2017-10-05T14:42:43.911Z,75.00
2017-10-05T14:45:11.310Z,75.00
2017-10-05T14:47:38.826Z,80.00
2017-10-05T14:50:06.214Z,84.30
2017-10-05T14:52:33.722Z,88.00
2017-10-05T14:55:01.126Z,90.80
2017-10-05T14:57:28.538Z,92.10
2017-10-05T14:59:56.040Z,93.60
2017-10-05T15:02:23.908Z,94.40
2017-10-05T15:04:51.366Z,95.60
2017-10-05T15:07:18.793Z,95.70
2017-10-05T15:09:46.246Z,95.60
2017-10-05T15:12:13.695Z,95.30
2017-10-05T15:14:41.105Z,95.00
2017-10-05T15:17:08.539Z,95.30
2017-10-05T15:19:35.956Z,96.00
2017-10-05T15:22:03.418Z,97.10
2017-10-05T15:24:30.830Z,98.10
2017-10-05T15:26:59.015Z,99.10
2017-10-05T15:29:27.191Z,98.30
2017-10-05T15:31:54.604Z,98.30
2017-10-05T15:34:22.042Z,96.40
2017-10-05T15:36:49.539Z,95.50
2017-10-05T15:39:17.719Z,96.30
2017-10-05T15:41:45.154Z,96.30
2017-10-05T15:44:12.550Z,96.00
2017-10-05T15:46:41.079Z,95.70
2017-10-05T15:49:08.517Z,95.70
2017-10-05T15:51:35.906Z,94.60
2017-10-05T15:54:03.326Z,95.30
2017-10-05T15:56:30.771Z,95.40
2017-10-05T15:58:58.943Z,95.20
2017-10-05T16:01:26.359Z,95.20
2017-10-05T16:03:53.784Z,95.70
2017-10-05T16:06:21.217Z,95.30
2017-10-05T16:08:49.382Z,95.70
2017-10-05T16:11:16.791Z,95.80
2017-10-05T16:13:44.222Z,95.40
2017-10-05T16:16:11.789Z,95.70
2017-10-05T16:18:39.211Z,95.80
2017-10-05T16:21:07.383Z,95.10
2017-10-05T16:23:34.807Z,95.10
2017-10-05T16:26:02.249Z,95.00
2017-10-05T16:28:29.650Z,95.10
2017-10-05T16:30:57.136Z,94.90
2017-10-05T16:33:24.535Z,94.90
2017-10-05T16:35:53.637Z,95.30
2017-10-05T16:38:21.842Z,95.70
2017-10-05T16:40:49.246Z,95.60
2017-10-05T16:43:16.672Z,95.90
2017-10-05T16:45:44.091Z,96.20
2017-10-05T16:48:11.565Z,96.60
2017-10-05T16:50:38.979Z,97.00
2017-10-05T16:53:06.522Z,97.30
2017-10-05T16:55:33.945Z,97.50
2017-10-05T16:58:01.361Z,97.70
2017-10-05T17:00:29.535Z,98.20
2017-10-05T17:02:57.731Z,98.50
2017-10-05T17:05:25.143Z,98.50
2017-10-05T17:07:53.497Z,98.70
2017-10-05T17:10:20.919Z,98.90
2017-10-05T17:12:48.368Z,99.10
2017-10-05T17:15:16.798Z,99.50
2017-10-05T17:17:44.245Z,99.50
2017-10-05T17:20:11.662Z,99.70
2017-10-05T17:22:39.099Z,99.70
2017-10-05T17:25:07.303Z,99.90
2017-10-05T17:27:34.706Z,99.80
2017-10-05T17:30:02.352Z,99.80
2017-10-05T17:32:29.751Z,99.90
2017-10-05T17:34:57.930Z,99.90
2017-10-05T17:37:26.098Z,99.90
2017-10-05T17:39:54.827Z,99.90
2017-10-05T17:42:22.211Z,99.90
2017-10-05T17:44:49.638Z,99.90
2017-10-05T17:47:17.045Z,99.90
2017-10-05T17:49:45.218Z,99.90
2017-10-05T17:52:13.395Z,99.90
2017-10-05T17:54:41.570Z,99.90
2017-10-05T17:57:09.781Z,99.90
2017-10-05T17:59:37.211Z,99.90
2017-10-05T18:02:05.379Z,99.90
2017-10-05T18:04:33.567Z,99.90
2017-10-05T18:07:00.984Z,99.90
2017-10-05T18:09:28.418Z,99.90
2017-10-05T18:11:55.822Z,99.90
2017-10-05T18:14:24.923Z,99.90
2017-10-05T18:16:52.338Z,99.90
2017-10-05T18:19:19.785Z,99.90
2017-10-05T18:21:47.179Z,99.90
2017-10-05T18:24:15.395Z,99.90
2017-10-05T18:26:42.843Z,99.90
2017-10-05T18:29:10.252Z,99.90
2017-10-05T18:31:37.663Z,99.90
2017-10-05T18:34:05.093Z,99.90
2017-10-05T18:36:32.798Z,99.90
2017-10-05T18:39:00.228Z,99.90
2017-10-05T18:41:27.635Z,99.90
2017-10-05T18:43:55.852Z,99.90
2017-10-05T18:46:24.930Z,99.90
2017-10-05T18:48:52.343Z,99.90
2017-10-05T18:51:19.763Z,99.90
2017-10-05T18:53:47.347Z,99.90
2017-10-05T18:56:14.755Z,99.90
2017-10-05T18:58:42.179Z,99.90
2017-10-05T19:01:09.618Z,99.90
2017-10-05T19:03:37.091Z,99.90
2017-10-05T19:06:04.508Z,99.90
2017-10-05T19:08:31.955Z,99.90
2017-10-05T19:10:59.420Z,99.90
2017-10-05T19:13:26.872Z,99.90
2017-10-05T19:15:55.981Z,99.90
2017-10-05T19:18:23.496Z,99.90
2017-10-05T19:20:51.221Z,99.90
2017-10-05T19:23:18.661Z,99.90
2017-10-05T19:25:46.084Z,99.90
2017-10-05T19:28:14.263Z,99.90
2017-10-05T19:30:41.675Z,99.90
2017-10-05T19:33:09.107Z,99.90
2017-10-05T19:35:36.595Z,99.90
2017-10-05T19:38:04.115Z,99.90
2017-10-05T19:40:31.545Z,99.90
2017-10-05T19:42:59.732Z,99.90
2017-10-05T19:45:27.163Z,99.90
2017-10-05T19:47:56.271Z,99.90
2017-10-05T19:50:23.687Z,99.90
2017-10-05T19:52:51.106Z,99.90
2017-10-05T19:55:18.549Z,99.90
2017-10-05T19:57:45.971Z,99.90
2017-10-05T20:00:14.159Z,99.90
2017-10-05T20:02:42.346Z,99.90
2017-10-05T20:05:09.768Z,99.90
2017-10-05T20:07:37.954Z,99.90
2017-10-05T20:10:06.135Z,99.90
2017-10-05T20:12:33.569Z,99.90
2017-10-05T20:15:14.848Z,99.90
2017-10-05T20:17:49.788Z,99.90
2017-10-05T20:20:20.024Z,99.90
2017-10-05T20:22:49.173Z,99.90
2017-10-05T20:25:19.523Z,99.90
2017-10-05T20:31:08.035Z,99.90
2017-10-05T20:33:35.451Z,99.90
2017-10-05T20:36:02.880Z,99.90
2017-10-05T20:38:30.299Z,99.90
2017-10-05T20:40:57.715Z,99.90
2017-10-05T20:43:25.166Z,99.90
2017-10-05T20:45:52.584Z,99.90
2017-10-05T20:48:20.080Z,99.90
2017-10-05T20:50:47.499Z,99.90
2017-10-05T20:53:14.972Z,99.90
2017-10-05T20:55:42.428Z,99.90
2017-10-05T20:58:09.839Z,99.90
2017-10-05T21:00:37.499Z,99.90
2017-10-05T21:03:04.922Z,99.90
2017-10-05T21:05:32.335Z,99.90
2017-10-05T21:07:59.767Z,99.90
2017-10-05T21:10:27.977Z,99.90
2017-10-05T21:12:55.433Z,99.90
2017-10-05T21:15:22.887Z,99.90
2017-10-05T21:17:50.296Z,99.90
2017-10-05T21:20:18.541Z,99.90
2017-10-05T21:22:46.151Z,99.90
2017-10-05T21:25:13.592Z,99.90
2017-10-05T21:27:41.767Z,99.90
2017-10-05T21:30:09.972Z,99.90
2017-10-05T21:32:37.392Z,99.90
2017-10-05T21:35:05.575Z,99.90
2017-10-05T21:37:33.011Z,99.90
2017-10-05T21:40:00.445Z,99.90
2017-10-05T21:42:27.868Z,99.90
2017-10-05T21:44:55.299Z,99.90
2017-10-05T21:47:22.741Z,99.90
2017-10-05T21:49:50.918Z,99.90
2017-10-05T21:52:19.123Z,99.90
2017-10-05T21:54:46.545Z,99.90
2017-10-05T21:57:13.960Z,99.90
2017-10-05T21:59:41.383Z,99.90
2017-10-05T22:02:08.815Z,99.90
2017-10-05T22:04:36.233Z,99.90
2017-10-05T22:07:03.656Z,99.90
2017-10-05T22:09:31.128Z,99.90
2017-10-05T22:11:58.557Z,99.90
2017-10-05T22:14:25.979Z,99.90
2017-10-05T22:16:53.411Z,99.90
2017-10-05T22:19:20.859Z,99.90
2017-10-05T22:21:48.296Z,99.90
2017-10-05T22:24:16.453Z,99.90
2017-10-05T22:26:43.879Z,99.90
2017-10-05T22:29:12.116Z,99.90
2017-10-05T22:31:39.556Z,99.90
2017-10-05T22:34:06.969Z,99.90
2017-10-05T22:36:35.174Z,99.90
2017-10-05T22:39:02.600Z,99.90
2017-10-05T22:41:30.024Z,99.90
2017-10-05T22:43:58.364Z,99.90
2017-10-05T22:46:25.793Z,99.90
2017-10-05T22:48:53.982Z,99.90
2017-10-05T22:51:22.187Z,99.90
2017-10-05T22:53:49.615Z,99.90
2017-10-05T22:56:17.796Z,99.90
2017-10-05T22:58:45.231Z,99.90
2017-10-05T23:01:13.423Z,99.90
2017-10-05T23:03:40.855Z,99.90
2017-10-05T23:06:08.271Z,99.90
2017-10-05T23:08:35.688Z,99.90
2017-10-05T23:11:03.109Z,99.90
2017-10-05T23:13:30.527Z,99.90
2017-10-05T23:15:58.876Z,99.90
2017-10-05T23:18:26.295Z,99.90
2017-10-05T23:20:53.711Z,99.90
2017-10-05T23:23:21.129Z,99.90
2017-10-05T23:25:49.327Z,99.90
2017-10-05T23:28:16.763Z,99.90
2017-10-05T23:30:44.953Z,99.90
2017-10-05T23:33:12.378Z,99.90
2017-10-05T23:35:39.791Z,99.90
2017-10-05T23:38:07.345Z,99.90
2017-10-05T23:40:34.752Z,99.90
2017-10-05T23:43:02.877Z,99.90
2017-10-05T23:45:30.300Z,99.90
2017-10-05T23:47:59.411Z,99.90
2017-10-05T23:50:27.550Z,99.90
2017-10-05T23:52:55.756Z,99.90
2017-10-05T23:55:23.423Z,99.90
2017-10-05T23:57:50.847Z,99.90
